sensor_id;sensor_type;location;lat;lon;timestamp;P1;durP1;ratioP1;P2;durP2;ratioP2
4106;SDS011;21906;50.812;7.132;2022-11-20T00:00:09;17.10;;;11.00;;
4106;SDS011;21906;50.812;7.132;2022-11-20T00:02:35;19.73;;;11.43;;
4106;SDS011;21906;50.812;7.132;2022-11-20T00:05:00;16.80;;;11.47;;
4106;SDS011;21906;50.812;7.132;2022-11-20T00:07:26;18.40;;;11.50;;
4106;SDS011;21906;50.812;7.132;2022-11-20T00:09:52;18.27;;;11.57;;
4106;SDS011;21906;50.812;7.132;2022-11-20T00:12:17;18.13;;;10.90;;
4106;SDS011;21906;50.812;7.132;2022-11-20T00:14:43;19.20;;;12.00;;
4106;SDS011;21906;50.812;7.132;2022-11-20T00:17:09;17.33;;;11.03;;
4106;SDS011;21906;50.812;7.132;2022-11-20T00:19:34;20.33;;;11.77;;
4106;SDS011;21906;50.812;7.132;2022-11-20T00:22:00;16.93;;;10.73;;
4106;SDS011;21906;50.812;7.132;2022-11-20T00:24:25;17.77;;;11.50;;
4106;SDS011;21906;50.812;7.132;2022-11-20T00:26:51;18.17;;;11.47;;
4106;SDS011;21906;50.812;7.132;2022-11-20T00:29:16;18.60;;;12.23;;
4106;SDS011;21906;50.812;7.132;2022-11-20T00:31:42;19.73;;;12.23;;
4106;SDS011;21906;50.812;7.132;2022-11-20T00:34:08;17.67;;;11.73;;
4106;SDS011;21906;50.812;7.132;2022-11-20T00:36:34;18.80;;;11.50;;
4106;SDS011;21906;50.812;7.132;2022-11-20T00:39:00;16.93;;;10.70;;
4106;SDS011;21906;50.812;7.132;2022-11-20T00:41:27;19.00;;;11.73;;
4106;SDS011;21906;50.812;7.132;2022-11-20T00:43:54;18.30;;;11.33;;
4106;SDS011;21906;50.812;7.132;2022-11-20T00:46:24;17.80;;;11.33;;
4106;SDS011;21906;50.812;7.132;2022-11-20T00:48:51;18.97;;;11.30;;
4106;SDS011;21906;50.812;7.132;2022-11-20T00:51:17;17.10;;;11.17;;
4106;SDS011;21906;50.812;7.132;2022-11-20T00:53:45;18.20;;;11.37;;
4106;SDS011;21906;50.812;7.132;2022-11-20T00:56:12;17.50;;;11.57;;
4106;SDS011;21906;50.812;7.132;2022-11-20T00:58:40;16.37;;;10.93;;
4106;SDS011;21906;50.812;7.132;2022-11-20T01:01:08;18.40;;;11.27;;
4106;SDS011;21906;50.812;7.132;2022-11-20T01:03:35;17.33;;;11.60;;
4106;SDS011;21906;50.812;7.132;2022-11-20T01:06:03;17.37;;;11.40;;
4106;SDS011;21906;50.812;7.132;2022-11-20T01:08:34;19.47;;;11.70;;
4106;SDS011;21906;50.812;7.132;2022-11-20T01:11:05;17.60;;;11.03;;
4106;SDS011;21906;50.812;7.132;2022-11-20T01:13:32;17.97;;;11.37;;
4106;SDS011;21906;50.812;7.132;2022-11-20T01:16:13;17.90;;;11.27;;
4106;SDS011;21906;50.812;7.132;2022-11-20T01:18:46;15.53;;;10.43;;
4106;SDS011;21906;50.812;7.132;2022-11-20T01:21:15;20.77;;;12.10;;
4106;SDS011;21906;50.812;7.132;2022-11-20T01:23:45;15.27;;;10.67;;
4106;SDS011;21906;50.812;7.132;2022-11-20T01:26:12;17.50;;;11.10;;
4106;SDS011;21906;50.812;7.132;2022-11-20T01:28:40;17.83;;;11.43;;
4106;SDS011;21906;50.812;7.132;2022-11-20T01:33:46;15.70;;;11.30;;
4106;SDS011;21906;50.812;7.132;2022-11-20T01:36:13;15.40;;;10.27;;
4106;SDS011;21906;50.812;7.132;2022-11-20T01:38:39;18.77;;;11.40;;
4106;SDS011;21906;50.812;7.132;2022-11-20T01:41:05;17.77;;;11.17;;
4106;SDS011;21906;50.812;7.132;2022-11-20T01:43:31;17.53;;;10.90;;
4106;SDS011;21906;50.812;7.132;2022-11-20T01:45:59;16.13;;;10.80;;
4106;SDS011;21906;50.812;7.132;2022-11-20T01:48:42;19.63;;;11.87;;
4106;SDS011;21906;50.812;7.132;2022-11-20T01:51:18;15.87;;;10.37;;
4106;SDS011;21906;50.812;7.132;2022-11-20T01:53:47;20.13;;;11.10;;
4106;SDS011;21906;50.812;7.132;2022-11-20T01:56:14;15.73;;;10.60;;
4106;SDS011;21906;50.812;7.132;2022-11-20T01:58:42;17.60;;;10.80;;
4106;SDS011;21906;50.812;7.132;2022-11-20T02:01:17;16.80;;;10.43;;
4106;SDS011;21906;50.812;7.132;2022-11-20T02:03:42;19.30;;;11.23;;
4106;SDS011;21906;50.812;7.132;2022-11-20T02:06:14;16.00;;;10.80;;
4106;SDS011;21906;50.812;7.132;2022-11-20T02:08:44;16.90;;;10.83;;
4106;SDS011;21906;50.812;7.132;2022-11-20T02:11:10;17.67;;;11.00;;
4106;SDS011;21906;50.812;7.132;2022-11-20T02:13:37;17.90;;;10.73;;
4106;SDS011;21906;50.812;7.132;2022-11-20T02:18:47;17.57;;;11.50;;
4106;SDS011;21906;50.812;7.132;2022-11-20T02:21:28;18.07;;;11.27;;
4106;SDS011;21906;50.812;7.132;2022-11-20T02:24:21;17.60;;;10.50;;
4106;SDS011;21906;50.812;7.132;2022-11-20T02:27:07;22.43;;;11.80;;
4106;SDS011;21906;50.812;7.132;2022-11-20T02:29:53;16.47;;;11.00;;
4106;SDS011;21906;50.812;7.132;2022-11-20T02:32:33;15.33;;;10.60;;
4106;SDS011;21906;50.812;7.132;2022-11-20T02:35:10;20.33;;;12.17;;
4106;SDS011;21906;50.812;7.132;2022-11-20T02:37:45;18.33;;;10.47;;
4106;SDS011;21906;50.812;7.132;2022-11-20T02:45:25;17.77;;;11.30;;
4106;SDS011;21906;50.812;7.132;2022-11-20T02:47:51;17.00;;;10.37;;
4106;SDS011;21906;50.812;7.132;2022-11-20T02:50:17;15.17;;;9.87;;
4106;SDS011;21906;50.812;7.132;2022-11-20T02:52:43;14.07;;;9.97;;
4106;SDS011;21906;50.812;7.132;2022-11-20T02:55:09;17.57;;;10.33;;
4106;SDS011;21906;50.812;7.132;2022-11-20T02:57:35;15.60;;;11.30;;
4106;SDS011;21906;50.812;7.132;2022-11-20T03:00:01;16.53;;;10.37;;
4106;SDS011;21906;50.812;7.132;2022-11-20T03:02:31;15.77;;;10.80;;
4106;SDS011;21906;50.812;7.132;2022-11-20T03:04:58;15.43;;;11.10;;
4106;SDS011;21906;50.812;7.132;2022-11-20T03:07:23;17.27;;;11.43;;
4106;SDS011;21906;50.812;7.132;2022-11-20T03:09:49;17.23;;;11.23;;
4106;SDS011;21906;50.812;7.132;2022-11-20T03:12:15;17.37;;;11.30;;
4106;SDS011;21906;50.812;7.132;2022-11-20T03:14:41;15.27;;;9.83;;
4106;SDS011;21906;50.812;7.132;2022-11-20T03:17:06;16.80;;;10.67;;
4106;SDS011;21906;50.812;7.132;2022-11-20T03:19:32;18.00;;;11.00;;
4106;SDS011;21906;50.812;7.132;2022-11-20T03:21:59;20.03;;;11.43;;
4106;SDS011;21906;50.812;7.132;2022-11-20T03:24:25;16.90;;;11.10;;
4106;SDS011;21906;50.812;7.132;2022-11-20T03:26:51;16.50;;;11.57;;
4106;SDS011;21906;50.812;7.132;2022-11-20T03:29:16;17.97;;;11.50;;
4106;SDS011;21906;50.812;7.132;2022-11-20T03:31:42;18.67;;;11.87;;
4106;SDS011;21906;50.812;7.132;2022-11-20T03:34:08;17.13;;;10.73;;
4106;SDS011;21906;50.812;7.132;2022-11-20T03:36:37;18.17;;;11.73;;
4106;SDS011;21906;50.812;7.132;2022-11-20T03:39:07;18.43;;;11.40;;
4106;SDS011;21906;50.812;7.132;2022-11-20T03:41:36;18.40;;;11.50;;
4106;SDS011;21906;50.812;7.132;2022-11-20T03:44:07;18.83;;;11.80;;
4106;SDS011;21906;50.812;7.132;2022-11-20T03:46:34;17.77;;;11.30;;
4106;SDS011;21906;50.812;7.132;2022-11-20T03:49:00;17.03;;;11.00;;
4106;SDS011;21906;50.812;7.132;2022-11-20T03:51:26;19.00;;;11.67;;
4106;SDS011;21906;50.812;7.132;2022-11-20T03:53:55;17.53;;;11.50;;
4106;SDS011;21906;50.812;7.132;2022-11-20T03:56:23;18.17;;;11.20;;
4106;SDS011;21906;50.812;7.132;2022-11-20T03:58:50;20.27;;;12.10;;
4106;SDS011;21906;50.812;7.132;2022-11-20T04:01:17;15.93;;;10.57;;
4106;SDS011;21906;50.812;7.132;2022-11-20T04:03:54;19.23;;;11.80;;
4106;SDS011;21906;50.812;7.132;2022-11-20T04:06:25;15.73;;;11.03;;
4106;SDS011;21906;50.812;7.132;2022-11-20T04:08:58;17.57;;;11.20;;
4106;SDS011;21906;50.812;7.132;2022-11-20T04:11:26;18.40;;;12.10;;
4106;SDS011;21906;50.812;7.132;2022-11-20T04:13:54;17.87;;;11.13;;
4106;SDS011;21906;50.812;7.132;2022-11-20T04:16:22;17.03;;;11.70;;
4106;SDS011;21906;50.812;7.132;2022-11-20T04:18:53;18.30;;;11.93;;
4106;SDS011;21906;50.812;7.132;2022-11-20T04:21:23;16.20;;;10.77;;
4106;SDS011;21906;50.812;7.132;2022-11-20T04:23:50;18.30;;;11.70;;
4106;SDS011;21906;50.812;7.132;2022-11-20T04:26:17;23.57;;;12.53;;
4106;SDS011;21906;50.812;7.132;2022-11-20T04:28:44;20.47;;;12.20;;
4106;SDS011;21906;50.812;7.132;2022-11-20T04:31:13;19.73;;;11.60;;
4106;SDS011;21906;50.812;7.132;2022-11-20T04:33:41;20.27;;;12.40;;
4106;SDS011;21906;50.812;7.132;2022-11-20T04:36:14;19.20;;;12.20;;
4106;SDS011;21906;50.812;7.132;2022-11-20T04:38:43;20.80;;;12.13;;
4106;SDS011;21906;50.812;7.132;2022-11-20T04:41:18;19.47;;;11.67;;
4106;SDS011;21906;50.812;7.132;2022-11-20T04:43:46;22.50;;;12.37;;
4106;SDS011;21906;50.812;7.132;2022-11-20T04:46:13;20.60;;;12.17;;
4106;SDS011;21906;50.812;7.132;2022-11-20T04:48:40;21.90;;;11.70;;
4106;SDS011;21906;50.812;7.132;2022-11-20T04:51:05;20.67;;;11.87;;
4106;SDS011;21906;50.812;7.132;2022-11-20T04:53:31;20.60;;;11.97;;
4106;SDS011;21906;50.812;7.132;2022-11-20T04:56:00;22.00;;;12.70;;
4106;SDS011;21906;50.812;7.132;2022-11-20T04:58:30;23.40;;;13.27;;
4106;SDS011;21906;50.812;7.132;2022-11-20T05:01:03;21.67;;;12.83;;
4106;SDS011;21906;50.812;7.132;2022-11-20T05:03:39;23.17;;;12.57;;
4106;SDS011;21906;50.812;7.132;2022-11-20T05:06:06;20.30;;;12.60;;
4106;SDS011;21906;50.812;7.132;2022-11-20T05:08:34;19.77;;;12.80;;
4106;SDS011;21906;50.812;7.132;2022-11-20T05:11:03;18.60;;;11.40;;
4106;SDS011;21906;50.812;7.132;2022-11-20T05:13:33;18.97;;;12.00;;
4106;SDS011;21906;50.812;7.132;2022-11-20T05:16:03;16.43;;;11.17;;
4106;SDS011;21906;50.812;7.132;2022-11-20T05:18:31;20.80;;;12.17;;
4106;SDS011;21906;50.812;7.132;2022-11-20T05:20:57;20.23;;;11.93;;
4106;SDS011;21906;50.812;7.132;2022-11-20T05:23:24;22.27;;;12.53;;
4106;SDS011;21906;50.812;7.132;2022-11-20T05:25:53;20.57;;;12.60;;
4106;SDS011;21906;50.812;7.132;2022-11-20T05:28:20;23.27;;;13.20;;
4106;SDS011;21906;50.812;7.132;2022-11-20T05:30:46;20.23;;;12.20;;
4106;SDS011;21906;50.812;7.132;2022-11-20T05:33:11;17.17;;;11.30;;
4106;SDS011;21906;50.812;7.132;2022-11-20T05:35:37;23.20;;;12.67;;
4106;SDS011;21906;50.812;7.132;2022-11-20T05:38:02;19.57;;;11.57;;
4106;SDS011;21906;50.812;7.132;2022-11-20T05:40:28;21.13;;;12.20;;
4106;SDS011;21906;50.812;7.132;2022-11-20T05:42:54;18.70;;;11.67;;
4106;SDS011;21906;50.812;7.132;2022-11-20T05:45:19;19.63;;;12.27;;
4106;SDS011;21906;50.812;7.132;2022-11-20T05:47:45;21.20;;;12.50;;
4106;SDS011;21906;50.812;7.132;2022-11-20T05:50:11;19.20;;;12.00;;
4106;SDS011;21906;50.812;7.132;2022-11-20T05:52:36;20.37;;;11.47;;
4106;SDS011;21906;50.812;7.132;2022-11-20T05:55:02;20.10;;;11.97;;
4106;SDS011;21906;50.812;7.132;2022-11-20T05:57:28;18.83;;;11.27;;
4106;SDS011;21906;50.812;7.132;2022-11-20T05:59:53;17.40;;;11.07;;
4106;SDS011;21906;50.812;7.132;2022-11-20T06:02:19;20.87;;;12.57;;
4106;SDS011;21906;50.812;7.132;2022-11-20T06:04:45;18.37;;;11.27;;
4106;SDS011;21906;50.812;7.132;2022-11-20T06:07:10;21.67;;;11.73;;
4106;SDS011;21906;50.812;7.132;2022-11-20T06:09:36;22.70;;;12.20;;
4106;SDS011;21906;50.812;7.132;2022-11-20T06:12:02;17.43;;;11.07;;
4106;SDS011;21906;50.812;7.132;2022-11-20T06:14:27;19.50;;;11.27;;
4106;SDS011;21906;50.812;7.132;2022-11-20T06:16:53;17.93;;;10.60;;
4106;SDS011;21906;50.812;7.132;2022-11-20T06:19:19;18.67;;;11.70;;
4106;SDS011;21906;50.812;7.132;2022-11-20T06:21:44;17.73;;;11.63;;
4106;SDS011;21906;50.812;7.132;2022-11-20T06:24:12;21.97;;;12.27;;
4106;SDS011;21906;50.812;7.132;2022-11-20T06:26:37;20.50;;;12.23;;
4106;SDS011;21906;50.812;7.132;2022-11-20T06:29:03;20.20;;;12.10;;
4106;SDS011;21906;50.812;7.132;2022-11-20T06:31:29;17.17;;;11.97;;
4106;SDS011;21906;50.812;7.132;2022-11-20T06:33:57;20.10;;;11.80;;
4106;SDS011;21906;50.812;7.132;2022-11-20T06:36:23;20.80;;;12.33;;
4106;SDS011;21906;50.812;7.132;2022-11-20T06:38:49;20.30;;;12.07;;
4106;SDS011;21906;50.812;7.132;2022-11-20T06:41:16;19.10;;;12.17;;
4106;SDS011;21906;50.812;7.132;2022-11-20T06:43:45;18.40;;;12.00;;
4106;SDS011;21906;50.812;7.132;2022-11-20T06:46:11;18.90;;;11.50;;
4106;SDS011;21906;50.812;7.132;2022-11-20T06:48:38;19.53;;;12.20;;
4106;SDS011;21906;50.812;7.132;2022-11-20T06:51:05;23.87;;;11.97;;
4106;SDS011;21906;50.812;7.132;2022-11-20T06:53:32;22.20;;;13.37;;
4106;SDS011;21906;50.812;7.132;2022-11-20T06:55:58;22.00;;;13.37;;
4106;SDS011;21906;50.812;7.132;2022-11-20T06:58:28;22.03;;;12.93;;
4106;SDS011;21906;50.812;7.132;2022-11-20T07:00:58;22.97;;;12.80;;
4106;SDS011;21906;50.812;7.132;2022-11-20T07:03:25;18.80;;;12.13;;
4106;SDS011;21906;50.812;7.132;2022-11-20T07:05:50;19.63;;;12.70;;
4106;SDS011;21906;50.812;7.132;2022-11-20T07:08:16;22.90;;;13.17;;
4106;SDS011;21906;50.812;7.132;2022-11-20T07:10:42;18.87;;;11.90;;
4106;SDS011;21906;50.812;7.132;2022-11-20T07:13:07;23.80;;;12.17;;
4106;SDS011;21906;50.812;7.132;2022-11-20T07:15:33;21.70;;;13.20;;
4106;SDS011;21906;50.812;7.132;2022-11-20T07:17:59;20.67;;;12.47;;
4106;SDS011;21906;50.812;7.132;2022-11-20T07:20:25;20.77;;;12.53;;
4106;SDS011;21906;50.812;7.132;2022-11-20T07:22:54;22.20;;;13.03;;
4106;SDS011;21906;50.812;7.132;2022-11-20T07:25:20;20.83;;;12.33;;
4106;SDS011;21906;50.812;7.132;2022-11-20T07:27:47;21.57;;;13.30;;
4106;SDS011;21906;50.812;7.132;2022-11-20T07:30:13;21.50;;;13.40;;
4106;SDS011;21906;50.812;7.132;2022-11-20T07:32:40;21.73;;;12.53;;
4106;SDS011;21906;50.812;7.132;2022-11-20T07:35:05;20.17;;;12.70;;
4106;SDS011;21906;50.812;7.132;2022-11-20T07:37:33;19.50;;;11.70;;
4106;SDS011;21906;50.812;7.132;2022-11-20T07:39:59;18.97;;;11.60;;
4106;SDS011;21906;50.812;7.132;2022-11-20T07:42:25;18.63;;;12.40;;
4106;SDS011;21906;50.812;7.132;2022-11-20T07:44:51;23.53;;;13.37;;
4106;SDS011;21906;50.812;7.132;2022-11-20T07:47:16;18.63;;;12.83;;
4106;SDS011;21906;50.812;7.132;2022-11-20T07:49:42;20.80;;;12.77;;
4106;SDS011;21906;50.812;7.132;2022-11-20T07:52:07;19.70;;;12.40;;
4106;SDS011;21906;50.812;7.132;2022-11-20T07:54:33;22.23;;;14.13;;
4106;SDS011;21906;50.812;7.132;2022-11-20T07:56:59;21.10;;;12.57;;
4106;SDS011;21906;50.812;7.132;2022-11-20T07:59:24;21.93;;;12.67;;
4106;SDS011;21906;50.812;7.132;2022-11-20T08:01:50;24.10;;;13.17;;
4106;SDS011;21906;50.812;7.132;2022-11-20T08:04:15;20.97;;;13.10;;
4106;SDS011;21906;50.812;7.132;2022-11-20T08:06:41;20.27;;;13.37;;
4106;SDS011;21906;50.812;7.132;2022-11-20T08:09:07;21.30;;;12.67;;
4106;SDS011;21906;50.812;7.132;2022-11-20T08:11:32;22.03;;;13.90;;
4106;SDS011;21906;50.812;7.132;2022-11-20T08:14:17;22.13;;;13.50;;
4106;SDS011;21906;50.812;7.132;2022-11-20T08:16:44;24.17;;;13.30;;
4106;SDS011;21906;50.812;7.132;2022-11-20T08:19:11;20.90;;;12.27;;
4106;SDS011;21906;50.812;7.132;2022-11-20T08:21:38;20.60;;;12.93;;
4106;SDS011;21906;50.812;7.132;2022-11-20T08:24:04;21.10;;;13.40;;
4106;SDS011;21906;50.812;7.132;2022-11-20T08:26:30;21.00;;;12.50;;
4106;SDS011;21906;50.812;7.132;2022-11-20T08:28:56;19.70;;;13.00;;
4106;SDS011;21906;50.812;7.132;2022-11-20T08:31:23;25.53;;;13.87;;
4106;SDS011;21906;50.812;7.132;2022-11-20T08:33:50;22.93;;;13.33;;
4106;SDS011;21906;50.812;7.132;2022-11-20T08:36:16;20.30;;;13.00;;
4106;SDS011;21906;50.812;7.132;2022-11-20T08:38:46;25.63;;;13.77;;
4106;SDS011;21906;50.812;7.132;2022-11-20T08:41:16;18.40;;;12.10;;
4106;SDS011;21906;50.812;7.132;2022-11-20T08:43:58;20.23;;;13.10;;
4106;SDS011;21906;50.812;7.132;2022-11-20T08:46:26;21.33;;;12.93;;
4106;SDS011;21906;50.812;7.132;2022-11-20T08:49:06;23.37;;;14.37;;
4106;SDS011;21906;50.812;7.132;2022-11-20T08:51:33;24.20;;;13.63;;
4106;SDS011;21906;50.812;7.132;2022-11-20T08:53:59;22.33;;;13.43;;
4106;SDS011;21906;50.812;7.132;2022-11-20T08:56:24;25.57;;;13.90;;
4106;SDS011;21906;50.812;7.132;2022-11-20T08:58:50;22.60;;;13.97;;
4106;SDS011;21906;50.812;7.132;2022-11-20T09:01:17;22.30;;;13.20;;
4106;SDS011;21906;50.812;7.132;2022-11-20T09:03:43;16.93;;;11.90;;
4106;SDS011;21906;50.812;7.132;2022-11-20T09:06:09;22.40;;;13.07;;
4106;SDS011;21906;50.812;7.132;2022-11-20T09:08:35;20.20;;;13.00;;
4106;SDS011;21906;50.812;7.132;2022-11-20T09:11:03;20.77;;;13.50;;
4106;SDS011;21906;50.812;7.132;2022-11-20T09:13:29;24.97;;;15.93;;
4106;SDS011;21906;50.812;7.132;2022-11-20T09:15:57;22.90;;;13.70;;
4106;SDS011;21906;50.812;7.132;2022-11-20T09:18:25;20.50;;;13.10;;
4106;SDS011;21906;50.812;7.132;2022-11-20T09:20:51;21.73;;;13.43;;
4106;SDS011;21906;50.812;7.132;2022-11-20T09:23:21;24.50;;;14.07;;
4106;SDS011;21906;50.812;7.132;2022-11-20T09:25:46;28.33;;;14.83;;
4106;SDS011;21906;50.812;7.132;2022-11-20T09:28:12;24.40;;;14.30;;
4106;SDS011;21906;50.812;7.132;2022-11-20T09:30:38;26.10;;;14.10;;
4106;SDS011;21906;50.812;7.132;2022-11-20T09:33:04;25.67;;;14.47;;
4106;SDS011;21906;50.812;7.132;2022-11-20T09:35:31;25.00;;;15.17;;
4106;SDS011;21906;50.812;7.132;2022-11-20T09:37:57;24.83;;;15.43;;
4106;SDS011;21906;50.812;7.132;2022-11-20T09:40:23;24.83;;;14.00;;
4106;SDS011;21906;50.812;7.132;2022-11-20T09:43:05;23.40;;;14.00;;
4106;SDS011;21906;50.812;7.132;2022-11-20T09:46:17;24.43;;;14.47;;
4106;SDS011;21906;50.812;7.132;2022-11-20T09:49:11;25.93;;;14.83;;
4106;SDS011;21906;50.812;7.132;2022-11-20T09:54:46;25.40;;;14.97;;
4106;SDS011;21906;50.812;7.132;2022-11-20T09:57:11;26.90;;;15.00;;
4106;SDS011;21906;50.812;7.132;2022-11-20T09:59:42;26.97;;;15.40;;
4106;SDS011;21906;50.812;7.132;2022-11-20T10:04:51;26.37;;;15.37;;
4106;SDS011;21906;50.812;7.132;2022-11-20T10:07:23;27.50;;;15.47;;
4106;SDS011;21906;50.812;7.132;2022-11-20T10:10:13;27.50;;;15.80;;
4106;SDS011;21906;50.812;7.132;2022-11-20T10:12:59;24.70;;;15.00;;
4106;SDS011;21906;50.812;7.132;2022-11-20T10:15:52;22.00;;;13.90;;
4106;SDS011;21906;50.812;7.132;2022-11-20T10:30:01;25.00;;;14.60;;
4106;SDS011;21906;50.812;7.132;2022-11-20T10:32:39;26.33;;;15.50;;
4106;SDS011;21906;50.812;7.132;2022-11-20T10:37:42;21.37;;;13.70;;
4106;SDS011;21906;50.812;7.132;2022-11-20T10:43:27;22.63;;;13.63;;
4106;SDS011;21906;50.812;7.132;2022-11-20T10:48:27;24.53;;;14.67;;
4106;SDS011;21906;50.812;7.132;2022-11-20T10:51:12;25.60;;;15.70;;
4106;SDS011;21906;50.812;7.132;2022-11-20T10:56:20;26.00;;;14.43;;
4106;SDS011;21906;50.812;7.132;2022-11-20T10:59:11;24.73;;;14.23;;
4106;SDS011;21906;50.812;7.132;2022-11-20T11:01:43;26.07;;;14.70;;
4106;SDS011;21906;50.812;7.132;2022-11-20T11:04:18;24.60;;;14.57;;
4106;SDS011;21906;50.812;7.132;2022-11-20T11:07:01;22.80;;;13.23;;
4106;SDS011;21906;50.812;7.132;2022-11-20T11:09:52;21.17;;;12.70;;
4106;SDS011;21906;50.812;7.132;2022-11-20T11:12:19;24.17;;;14.33;;
4106;SDS011;21906;50.812;7.132;2022-11-20T11:20:01;26.10;;;14.67;;
4106;SDS011;21906;50.812;7.132;2022-11-20T11:22:27;24.30;;;14.77;;
4106;SDS011;21906;50.812;7.132;2022-11-20T11:24:55;24.73;;;14.30;;
4106;SDS011;21906;50.812;7.132;2022-11-20T11:27:21;23.63;;;14.77;;
4106;SDS011;21906;50.812;7.132;2022-11-20T11:29:46;26.13;;;15.70;;
4106;SDS011;21906;50.812;7.132;2022-11-20T11:32:18;21.70;;;13.67;;
4106;SDS011;21906;50.812;7.132;2022-11-20T11:34:58;25.57;;;15.03;;
4106;SDS011;21906;50.812;7.132;2022-11-20T11:37:35;23.27;;;14.43;;
4106;SDS011;21906;50.812;7.132;2022-11-20T11:40:03;24.10;;;14.30;;
4106;SDS011;21906;50.812;7.132;2022-11-20T11:42:31;23.87;;;14.67;;
4106;SDS011;21906;50.812;7.132;2022-11-20T11:44:59;28.93;;;15.10;;
4106;SDS011;21906;50.812;7.132;2022-11-20T11:47:36;24.37;;;14.90;;
4106;SDS011;21906;50.812;7.132;2022-11-20T11:53:23;24.33;;;14.93;;
4106;SDS011;21906;50.812;7.132;2022-11-20T12:03:36;26.23;;;15.43;;
4106;SDS011;21906;50.812;7.132;2022-11-20T12:06:11;24.87;;;15.00;;
4106;SDS011;21906;50.812;7.132;2022-11-20T12:11:23;26.10;;;15.30;;
4106;SDS011;21906;50.812;7.132;2022-11-20T12:16:29;25.43;;;14.60;;
4106;SDS011;21906;50.812;7.132;2022-11-20T12:19:00;25.80;;;15.10;;
4106;SDS011;21906;50.812;7.132;2022-11-20T12:24:30;27.23;;;14.50;;
4106;SDS011;21906;50.812;7.132;2022-11-20T12:51:48;24.60;;;14.07;;
4106;SDS011;21906;50.812;7.132;2022-11-20T12:54:42;21.67;;;13.20;;
4106;SDS011;21906;50.812;7.132;2022-11-20T13:00:20;26.00;;;15.17;;
4106;SDS011;21906;50.812;7.132;2022-11-20T13:08:21;27.37;;;15.90;;
4106;SDS011;21906;50.812;7.132;2022-11-20T13:10:52;25.60;;;15.23;;
4106;SDS011;21906;50.812;7.132;2022-11-20T13:13:31;26.67;;;15.47;;
4106;SDS011;21906;50.812;7.132;2022-11-20T13:16:16;24.43;;;14.47;;
4106;SDS011;21906;50.812;7.132;2022-11-20T13:18:53;25.17;;;14.93;;
4106;SDS011;21906;50.812;7.132;2022-11-20T13:21:20;25.17;;;15.20;;
4106;SDS011;21906;50.812;7.132;2022-11-20T13:23:48;23.50;;;14.33;;
4106;SDS011;21906;50.812;7.132;2022-11-20T13:26:20;22.47;;;14.53;;
4106;SDS011;21906;50.812;7.132;2022-11-20T13:28:59;23.27;;;13.83;;
4106;SDS011;21906;50.812;7.132;2022-11-20T13:31:43;23.50;;;12.67;;
4106;SDS011;21906;50.812;7.132;2022-11-20T13:34:22;22.90;;;13.53;;
4106;SDS011;21906;50.812;7.132;2022-11-20T13:36:51;22.60;;;13.73;;
4106;SDS011;21906;50.812;7.132;2022-11-20T13:39:24;22.20;;;13.67;;
4106;SDS011;21906;50.812;7.132;2022-11-20T13:41:55;24.37;;;13.80;;
4106;SDS011;21906;50.812;7.132;2022-11-20T13:44:45;25.27;;;14.17;;
4106;SDS011;21906;50.812;7.132;2022-11-20T13:47:22;24.87;;;14.77;;
4106;SDS011;21906;50.812;7.132;2022-11-20T13:49:49;20.07;;;13.73;;
4106;SDS011;21906;50.812;7.132;2022-11-20T14:00:57;20.77;;;12.80;;
4106;SDS011;21906;50.812;7.132;2022-11-20T14:03:28;24.80;;;14.63;;
4106;SDS011;21906;50.812;7.132;2022-11-20T14:05:55;20.00;;;12.90;;
4106;SDS011;21906;50.812;7.132;2022-11-20T14:08:40;22.43;;;14.23;;
4106;SDS011;21906;50.812;7.132;2022-11-20T14:11:18;23.27;;;13.97;;
4106;SDS011;21906;50.812;7.132;2022-11-20T14:13:56;22.20;;;13.57;;
4106;SDS011;21906;50.812;7.132;2022-11-20T14:16:23;19.10;;;13.37;;
4106;SDS011;21906;50.812;7.132;2022-11-20T14:18:50;23.70;;;14.30;;
4106;SDS011;21906;50.812;7.132;2022-11-20T14:21:23;24.23;;;14.80;;
4106;SDS011;21906;50.812;7.132;2022-11-20T14:24:04;21.43;;;14.30;;
4106;SDS011;21906;50.812;7.132;2022-11-20T14:26:31;26.07;;;14.20;;
4106;SDS011;21906;50.812;7.132;2022-11-20T14:28:57;21.80;;;14.43;;
4106;SDS011;21906;50.812;7.132;2022-11-20T14:31:25;20.87;;;13.50;;
4106;SDS011;21906;50.812;7.132;2022-11-20T14:33:55;25.73;;;14.17;;
4106;SDS011;21906;50.812;7.132;2022-11-20T14:36:22;21.07;;;13.43;;
4106;SDS011;21906;50.812;7.132;2022-11-20T14:38:50;22.00;;;13.87;;
4106;SDS011;21906;50.812;7.132;2022-11-20T14:41:20;21.53;;;13.83;;
4106;SDS011;21906;50.812;7.132;2022-11-20T14:43:56;21.50;;;13.80;;
4106;SDS011;21906;50.812;7.132;2022-11-20T14:46:23;23.27;;;13.90;;
4106;SDS011;21906;50.812;7.132;2022-11-20T14:48:51;22.90;;;14.60;;
4106;SDS011;21906;50.812;7.132;2022-11-20T14:52:22;22.27;;;14.33;;
4106;SDS011;21906;50.812;7.132;2022-11-20T14:54:25;21.50;;;13.67;;
4106;SDS011;21906;50.812;7.132;2022-11-20T14:57:20;25.13;;;13.47;;
4106;SDS011;21906;50.812;7.132;2022-11-20T14:59:46;21.50;;;13.30;;
4106;SDS011;21906;50.812;7.132;2022-11-20T15:02:11;20.13;;;12.53;;
4106;SDS011;21906;50.812;7.132;2022-11-20T15:04:47;18.90;;;12.57;;
4106;SDS011;21906;50.812;7.132;2022-11-20T15:07:24;20.40;;;12.90;;
4106;SDS011;21906;50.812;7.132;2022-11-20T15:10:08;18.13;;;12.10;;
4106;SDS011;21906;50.812;7.132;2022-11-20T15:12:47;20.13;;;12.73;;
4106;SDS011;21906;50.812;7.132;2022-11-20T15:16:03;22.40;;;13.93;;
4106;SDS011;21906;50.812;7.132;2022-11-20T15:18:12;23.60;;;13.90;;
4106;SDS011;21906;50.812;7.132;2022-11-20T15:20:40;18.10;;;12.20;;
4106;SDS011;21906;50.812;7.132;2022-11-20T15:23:17;20.77;;;13.30;;
4106;SDS011;21906;50.812;7.132;2022-11-20T15:25:43;21.57;;;13.50;;
4106;SDS011;21906;50.812;7.132;2022-11-20T15:28:18;22.60;;;13.70;;
4106;SDS011;21906;50.812;7.132;2022-11-20T15:30:52;21.93;;;13.20;;
4106;SDS011;21906;50.812;7.132;2022-11-20T15:33:18;21.60;;;13.10;;
4106;SDS011;21906;50.812;7.132;2022-11-20T15:35:44;19.23;;;13.23;;
4106;SDS011;21906;50.812;7.132;2022-11-20T15:38:09;20.03;;;13.20;;
4106;SDS011;21906;50.812;7.132;2022-11-20T15:40:35;18.50;;;12.27;;
4106;SDS011;21906;50.812;7.132;2022-11-20T15:43:01;19.33;;;11.70;;
4106;SDS011;21906;50.812;7.132;2022-11-20T15:45:28;15.93;;;11.37;;
4106;SDS011;21906;50.812;7.132;2022-11-20T15:48:14;16.03;;;10.13;;
4106;SDS011;21906;50.812;7.132;2022-11-20T15:51:36;15.83;;;11.07;;
4106;SDS011;21906;50.812;7.132;2022-11-20T15:53:39;16.60;;;10.80;;
4106;SDS011;21906;50.812;7.132;2022-11-20T15:56:06;14.57;;;10.53;;
4106;SDS011;21906;50.812;7.132;2022-11-20T15:58:36;16.23;;;10.50;;
4106;SDS011;21906;50.812;7.132;2022-11-20T16:01:02;18.40;;;11.00;;
4106;SDS011;21906;50.812;7.132;2022-11-20T16:03:28;12.67;;;9.50;;
4106;SDS011;21906;50.812;7.132;2022-11-20T16:05:53;13.10;;;9.47;;
4106;SDS011;21906;50.812;7.132;2022-11-20T16:08:19;13.67;;;9.20;;
4106;SDS011;21906;50.812;7.132;2022-11-20T16:10:44;11.43;;;8.80;;
4106;SDS011;21906;50.812;7.132;2022-11-20T16:13:14;11.13;;;8.00;;
4106;SDS011;21906;50.812;7.132;2022-11-20T16:16:01;10.27;;;7.53;;
4106;SDS011;21906;50.812;7.132;2022-11-20T16:18:30;10.47;;;7.77;;
4106;SDS011;21906;50.812;7.132;2022-11-20T16:20:56;11.23;;;7.27;;
4106;SDS011;21906;50.812;7.132;2022-11-20T16:23:22;8.40;;;7.00;;
4106;SDS011;21906;50.812;7.132;2022-11-20T16:25:49;11.10;;;6.80;;
4106;SDS011;21906;50.812;7.132;2022-11-20T16:28:15;8.63;;;6.90;;
4106;SDS011;21906;50.812;7.132;2022-11-20T16:30:41;6.90;;;6.20;;
4106;SDS011;21906;50.812;7.132;2022-11-20T16:33:10;7.43;;;6.47;;
4106;SDS011;21906;50.812;7.132;2022-11-20T16:35:38;8.83;;;5.93;;